Time;durP1;ratioP1;P1;durP2;ratioP2;P2;SDS_P1;SDS_P2;PMS_P1;PMS_P2;Temp;Humidity;BMP_temperature;BMP_pressure;BME280_temperature;BME280_humidity;BME280_pressure;Samples;Min_cycle;Max_cycle;Signal;HPM_P1;HPM_P2
2023/11/28 00:01:30;;;;;;;;;;;15.60;63.20;;;;;;5105604;28;20376;-35
2023/11/28 00:03:56;;;;;;;;;;;15.60;63.20;;;;;;5106315;28;19912;-35
2023/11/28 00:06:22;;;;;;;;;;;15.60;63.20;;;;;;5104804;28;19965;-36
2023/11/28 00:08:48;;;;;;;;;;;15.50;63.00;;;;;;5105927;28;19947;-35
2023/11/28 00:11:18;;;;;;;;;;;15.50;63.00;;;;;;5105085;28;19977;-34
2023/11/28 00:13:43;;;;;;;;;;;15.60;63.40;;;;;;5100296;28;19943;-34
2023/11/28 00:16:09;;;;;;;;;;;15.70;63.60;;;;;;5105896;28;19931;-34
2023/11/28 00:18:35;;;;;;;;;;;15.70;63.60;;;;;;5087215;28;19930;-34
2023/11/28 00:21:01;;;;;;;;;;;15.60;63.30;;;;;;5105403;28;19952;-34
2023/11/28 00:23:27;;;;;;;;;;;15.60;63.20;;;;;;5105005;28;19935;-35
2023/11/28 00:25:53;;;;;;;;;;;15.60;63.20;;;;;;5105043;28;19915;-34
2023/11/28 00:28:19;;;;;;;;;;;15.50;63.20;;;;;;5103390;28;19931;-34
2023/11/28 00:30:45;;;;;;;;;;;15.50;63.10;;;;;;5110492;28;19934;-34
2023/11/28 00:33:11;;;;;;;;;;;15.50;63.20;;;;;;5103968;28;19911;-35
2023/11/28 00:35:38;;;;;;;;;;;15.50;63.40;;;;;;5096496;28;19976;-35
2023/11/28 00:38:04;;;;;;;;;;;15.70;63.60;;;;;;5104543;28;19924;-34
2023/11/28 00:40:31;;;;;;;;;;;15.70;63.80;;;;;;5104071;28;19916;-34
2023/11/28 00:42:58;;;;;;;;;;;15.60;63.40;;;;;;5104701;28;19922;-35
2023/11/28 00:45:25;;;;;;;;;;;15.60;63.40;;;;;;5104541;28;19923;-34
2023/11/28 00:47:51;;;;;;;;;;;15.60;63.30;;;;;;5104326;28;20007;-35
2023/11/28 00:50:18;;;;;;;;;;;15.50;63.20;;;;;;5102867;28;19919;-34
2023/11/28 00:52:44;;;;;;;;;;;15.50;63.20;;;;;;5104193;28;19953;-35
2023/11/28 00:55:10;;;;;;;;;;;15.50;63.20;;;;;;5103584;28;19908;-34
2023/11/28 00:57:36;;;;;;;;;;;15.50;63.40;;;;;;5093844;28;19920;-34
2023/11/28 01:00:03;;;;;;;;;;;15.60;63.60;;;;;;5105171;28;19916;-34
2023/11/28 01:02:29;;;;;;;;;;;15.70;63.80;;;;;;5102870;28;19916;-34
2023/11/28 01:04:56;;;;;;;;;;;15.60;63.60;;;;;;5100345;28;19912;-34
2023/11/28 01:07:21;;;;;;;;;;;15.60;63.50;;;;;;5097148;28;19940;-34
2023/11/28 01:09:48;;;;;;;;;;;15.60;63.50;;;;;;5102063;28;19930;-34
2023/11/28 01:12:13;;;;;;;;;;;15.50;63.30;;;;;;5103047;28;19908;-34
2023/11/28 01:14:39;;;;;;;;;;;15.50;63.50;;;;;;5104594;28;19948;-34
2023/11/28 01:17:06;;;;;;;;;;;15.50;63.40;;;;;;5111732;28;19916;-35
2023/11/28 01:19:36;;;;;;;;;;;15.50;63.60;;;;;;5089616;28;19957;-34
2023/11/28 01:22:02;;;;;;;;;;;15.60;63.70;;;;;;5103917;28;19919;-34
2023/11/28 01:24:28;;;;;;;;;;;15.70;63.90;;;;;;5103655;28;21282;-35
2023/11/28 01:26:54;;;;;;;;;;;15.60;63.70;;;;;;5104055;28;19919;-34
2023/11/28 01:29:20;;;;;;;;;;;15.60;63.50;;;;;;5101483;28;20407;-35
2023/11/28 01:31:45;;;;;;;;;;;15.50;63.50;;;;;;5108474;28;20257;-34
2023/11/28 01:34:11;;;;;;;;;;;15.50;63.50;;;;;;5106762;28;19962;-34
2023/11/28 01:36:40;;;;;;;;;;;15.50;63.60;;;;;;5103826;28;19942;-34
2023/11/28 01:39:07;;;;;;;;;;;15.40;63.40;;;;;;5103470;28;19973;-34
2023/11/28 01:41:34;;;;;;;;;;;15.40;63.50;;;;;;5103193;28;19912;-34
2023/11/28 01:44:03;;;;;;;;;;;15.60;63.80;;;;;;5103159;28;20400;-34
2023/11/28 01:46:30;;;;;;;;;;;15.60;63.80;;;;;;5103161;28;20799;-34
2023/11/28 01:48:56;;;;;;;;;;;15.60;63.70;;;;;;5079845;28;19913;-34
2023/11/28 01:51:22;;;;;;;;;;;15.50;63.50;;;;;;5100123;28;19916;-35
2023/11/28 01:53:50;;;;;;;;;;;15.50;63.60;;;;;;5103591;28;19911;-34
2023/11/28 01:56:15;;;;;;;;;;;15.50;63.70;;;;;;5102919;28;19920;-34
2023/11/28 01:58:41;;;;;;;;;;;15.40;63.60;;;;;;5095884;28;19911;-34
2023/11/28 02:01:07;;;;;;;;;;;15.40;63.50;;;;;;5103140;28;19908;-34
2023/11/28 02:03:33;;;;;;;;;;;15.50;63.80;;;;;;5103592;28;19934;-34
2023/11/28 02:06:00;;;;;;;;;;;15.50;63.80;;;;;;5104017;28;19912;-34
2023/11/28 02:08:26;;;;;;;;;;;15.60;63.90;;;;;;5103329;28;19996;-35
2023/11/28 02:10:52;;;;;;;;;;;15.50;63.60;;;;;;5103398;28;19911;-34
2023/11/28 02:13:19;;;;;;;;;;;15.50;63.80;;;;;;5103333;28;19912;-34
2023/11/28 02:15:45;;;;;;;;;;;15.40;63.60;;;;;;5103301;28;19933;-34
2023/11/28 02:18:13;;;;;;;;;;;15.40;63.70;;;;;;5095492;28;19959;-35
2023/11/28 02:20:39;;;;;;;;;;;15.40;63.60;;;;;;5105145;28;20650;-35
2023/11/28 02:23:06;;;;;;;;;;;15.40;63.70;;;;;;5103587;28;19919;-35
2023/11/28 02:25:43;;;;;;;;;;;15.60;63.80;;;;;;5102978;28;19912;-35
2023/11/28 02:28:10;;;;;;;;;;;15.60;63.90;;;;;;5103587;28;19923;-35
2023/11/28 02:30:36;;;;;;;;;;;15.50;63.70;;;;;;5108330;28;19916;-35
2023/11/28 02:33:02;;;;;;;;;;;15.50;63.80;;;;;;5085225;28;19912;-34
2023/11/28 02:35:28;;;;;;;;;;;15.50;63.70;;;;;;5103166;28;19927;-34
2023/11/28 02:37:54;;;;;;;;;;;15.40;63.60;;;;;;5103388;28;20297;-34
2023/11/28 02:40:21;;;;;;;;;;;15.40;63.60;;;;;;5102464;28;19908;-34
2023/11/28 02:42:47;;;;;;;;;;;15.40;63.70;;;;;;5103071;28;19975;-34
2023/11/28 02:45:13;;;;;;;;;;;15.50;63.80;;;;;;5102404;28;19908;-34
2023/11/28 02:47:39;;;;;;;;;;;15.50;63.80;;;;;;5103408;28;20646;-34
2023/11/28 02:50:06;;;;;;;;;;;15.50;63.70;;;;;;5103434;28;19908;-34
2023/11/28 02:52:33;;;;;;;;;;;15.50;63.60;;;;;;5102617;28;19912;-34
2023/11/28 02:54:59;;;;;;;;;;;15.40;63.70;;;;;;5079998;28;19923;-34
2023/11/28 02:57:26;;;;;;;;;;;15.40;63.80;;;;;;5102207;28;19922;-34
2023/11/28 02:59:53;;;;;;;;;;;15.40;63.70;;;;;;5108402;28;19908;-34
2023/11/28 03:02:19;;;;;;;;;;;15.50;63.80;;;;;;5103572;28;20387;-34
2023/11/28 03:04:45;;;;;;;;;;;15.50;63.90;;;;;;5095381;28;19968;-35
2023/11/28 03:07:11;;;;;;;;;;;15.50;63.80;;;;;;5097142;28;19915;-34
2023/11/28 03:09:37;;;;;;;;;;;15.50;63.80;;;;;;5102651;28;19908;-34
2023/11/28 03:12:03;;;;;;;;;;;15.40;63.70;;;;;;5093519;28;19934;-34
2023/11/28 03:14:29;;;;;;;;;;;15.40;63.70;;;;;;5089195;28;19955;-34
2023/11/28 03:16:55;;;;;;;;;;;15.30;63.80;;;;;;5100165;28;19920;-34
2023/11/28 03:19:21;;;;;;;;;;;15.50;63.90;;;;;;5089678;28;19935;-34
2023/11/28 03:21:46;;;;;;;;;;;15.60;63.90;;;;;;5099321;28;19954;-34
2023/11/28 03:24:13;;;;;;;;;;;15.50;63.70;;;;;;5088078;28;20023;-34
2023/11/28 03:26:39;;;;;;;;;;;15.50;64.50;;;;;;5103263;28;20019;-34
2023/11/28 03:29:05;;;;;;;;;;;15.50;63.80;;;;;;5087832;28;19947;-34
2023/11/28 03:31:30;;;;;;;;;;;15.40;63.70;;;;;;5110904;28;19947;-34
2023/11/28 03:33:56;;;;;;;;;;;15.40;63.60;;;;;;5100841;28;19912;-34
2023/11/28 03:36:22;;;;;;;;;;;15.30;63.70;;;;;;5105306;28;20390;-34
2023/11/28 03:38:48;;;;;;;;;;;15.40;63.80;;;;;;5105792;28;19912;-34
2023/11/28 03:41:14;;;;;;;;;;;15.60;63.80;;;;;;5098097;28;19908;-34
2023/11/28 03:43:40;;;;;;;;;;;15.50;63.80;;;;;;5099065;28;19969;-34
2023/11/28 03:46:06;;;;;;;;;;;15.50;63.70;;;;;;5098950;28;19919;-35
2023/11/28 03:48:32;;;;;;;;;;;15.40;63.60;;;;;;5105160;28;19913;-34
2023/11/28 03:50:58;;;;;;;;;;;15.40;64.50;;;;;;5106623;28;19908;-34
2023/11/28 03:53:23;;;;;;;;;;;15.30;63.70;;;;;;5105871;28;19912;-34
2023/11/28 03:55:49;;;;;;;;;;;15.30;63.60;;;;;;5098897;28;20400;-34
2023/11/28 03:58:15;;;;;;;;;;;15.40;63.80;;;;;;5090461;28;20392;-34
2023/11/28 04:00:41;;;;;;;;;;;15.50;63.80;;;;;;5103868;28;20378;-34
2023/11/28 04:03:07;;;;;;;;;;;15.50;63.80;;;;;;5105782;28;19908;-34
2023/11/28 04:05:33;;;;;;;;;;;15.50;63.60;;;;;;5101147;28;19912;-34
2023/11/28 04:07:59;;;;;;;;;;;15.40;63.60;;;;;;5105759;28;19951;-34
2023/11/28 04:10:25;;;;;;;;;;;15.40;63.60;;;;;;5105796;28;20391;-34
2023/11/28 04:12:51;;;;;;;;;;;15.30;63.70;;;;;;5105359;28;19919;-34
2023/11/28 04:15:17;;;;;;;;;;;15.40;63.70;;;;;;5104970;28;19912;-34
2023/11/28 04:17:43;;;;;;;;;;;15.50;63.80;;;;;;5105793;28;19916;-34
2023/11/28 04:20:09;;;;;;;;;;;15.50;63.90;;;;;;5105253;28;19945;-34
2023/11/28 04:22:35;;;;;;;;;;;15.50;63.70;;;;;;5105443;28;19922;-34
2023/11/28 04:25:01;;;;;;;;;;;15.40;63.60;;;;;;5099981;28;19907;-34
2023/11/28 04:27:28;;;;;;;;;;;15.40;63.60;;;;;;5105938;28;19919;-34
2023/11/28 04:29:54;;;;;;;;;;;15.30;63.70;;;;;;5110453;28;19912;-40
2023/11/28 04:32:20;;;;;;;;;;;15.30;63.70;;;;;;5104710;28;19911;-35
2023/11/28 04:34:46;;;;;;;;;;;15.40;63.70;;;;;;5105132;28;19912;-35
2023/11/28 04:37:11;;;;;;;;;;;15.50;63.80;;;;;;5102347;28;20682;-35
2023/11/28 04:39:37;;;;;;;;;;;15.50;63.80;;;;;;5104599;28;19908;-34
2023/11/28 04:42:03;;;;;;;;;;;15.50;63.60;;;;;;5105018;28;19912;-34
2023/11/28 04:44:29;;;;;;;;;;;15.40;63.60;;;;;;5104248;28;20046;-34
2023/11/28 04:46:55;;;;;;;;;;;15.40;63.70;;;;;;5105132;28;19907;-34
2023/11/28 04:49:23;;;;;;;;;;;15.30;63.60;;;;;;5104643;28;19934;-34
2023/11/28 04:51:50;;;;;;;;;;;15.40;63.80;;;;;;5105020;28;19941;-34
2023/11/28 04:54:16;;;;;;;;;;;15.50;63.80;;;;;;5098339;28;19951;-35
2023/11/28 04:56:42;;;;;;;;;;;15.60;63.90;;;;;;5097504;28;19920;-35
2023/11/28 04:59:08;;;;;;;;;;;15.50;63.70;;;;;;5109646;28;19999;-35
2023/11/28 05:01:33;;;;;;;;;;;15.50;63.70;;;;;;5104514;28;19918;-35
2023/11/28 05:03:59;;;;;;;;;;;15.40;63.70;;;;;;5104536;28;19912;-34
2023/11/28 05:06:25;;;;;;;;;;;15.40;63.80;;;;;;5104132;28;19931;-34
2023/11/28 05:08:51;;;;;;;;;;;15.30;63.80;;;;;;5104853;28;19912;-34
2023/11/28 05:11:17;;;;;;;;;;;15.30;63.90;;;;;;5104175;28;19949;-34
2023/11/28 05:13:43;;;;;;;;;;;15.50;63.90;;;;;;5099227;28;19919;-34
2023/11/28 05:16:09;;;;;;;;;;;15.50;63.80;;;;;;5102504;28;19954;-35
2023/11/28 05:18:35;;;;;;;;;;;15.50;63.80;;;;;;5104065;28;20403;-35
2023/11/28 05:21:00;;;;;;;;;;;15.50;63.70;;;;;;5105981;28;20007;-34
2023/11/28 05:23:28;;;;;;;;;;;15.40;63.70;;;;;;5103467;28;19912;-34
2023/11/28 05:25:53;;;;;;;;;;;15.40;63.80;;;;;;5097747;28;19908;-34
2023/11/28 05:28:20;;;;;;;;;;;15.30;63.70;;;;;;5094677;28;19912;-34
2023/11/28 05:30:46;;;;;;;;;;;15.40;63.80;;;;;;5091494;28;19942;-35
2023/11/28 05:33:13;;;;;;;;;;;15.50;63.80;;;;;;5096418;28;19908;-35
2023/11/28 05:35:39;;;;;;;;;;;15.50;63.90;;;;;;5104216;28;19912;-34
2023/11/28 05:38:05;;;;;;;;;;;15.50;63.70;;;;;;5104353;28;19919;-34
2023/11/28 05:40:31;;;;;;;;;;;15.40;63.70;;;;;;5103320;28;19912;-34
2023/11/28 05:42:57;;;;;;;;;;;15.40;63.70;;;;;;5103549;28;19919;-33
2023/11/28 05:45:22;;;;;;;;;;;15.30;63.80;;;;;;5103046;28;19912;-34
2023/11/28 05:47:49;;;;;;;;;;;15.30;63.80;;;;;;5104403;28;19912;-34
2023/11/28 05:50:15;;;;;;;;;;;15.40;63.80;;;;;;5103656;28;20404;-34
2023/11/28 05:52:41;;;;;;;;;;;15.50;63.80;;;;;;5103711;28;19912;-34
2023/11/28 05:55:07;;;;;;;;;;;15.50;63.90;;;;;;5101664;28;20386;-35
2023/11/28 05:57:33;;;;;;;;;;;15.50;63.70;;;;;;5103606;28;19939;-35
2023/11/28 05:59:59;;;;;;;;;;;15.50;63.80;;;;;;5109127;28;19908;-35
2023/11/28 06:02:45;;;;;;;;;;;15.40;63.70;;;;;;5021959;28;19920;-34
2023/11/28 06:05:11;;;;;;;;;;;15.40;63.80;;;;;;5021755;28;19909;-35
2023/11/28 06:07:38;;;;;;;;;;;15.30;63.80;;;;;;5022186;28;19914;-35
2023/11/28 06:10:04;;;;;;;;;;;15.50;63.80;;;;;;5005125;28;20372;-35
2023/11/28 06:12:30;;;;;;;;;;;15.50;63.80;;;;;;5021665;28;20004;-35
2023/11/28 06:14:56;;;;;;;;;;;15.50;63.70;;;;;;5021457;28;19909;-35
2023/11/28 06:17:22;;;;;;;;;;;15.50;63.70;;;;;;5020017;28;19917;-35
2023/11/28 06:19:48;;;;;;;;;;;15.40;63.60;;;;;;5015364;28;19913;-35
2023/11/28 06:22:14;;;;;;;;;;;15.40;63.70;;;;;;5021641;28;19909;-35
2023/11/28 06:24:39;;;;;;;;;;;15.30;63.70;;;;;;5026739;28;19917;-35
2023/11/28 06:27:05;;;;;;;;;;;15.30;63.70;;;;;;5021563;28;19910;-35
2023/11/28 06:29:32;;;;;;;;;;;15.50;63.70;;;;;;5026324;28;19914;-35
2023/11/28 06:31:59;;;;;;;;;;;15.50;63.60;;;;;;5021872;28;19913;-35
2023/11/28 06:34:25;;;;;;;;;;;15.50;63.60;;;;;;5021352;28;20000;-35
2023/11/28 06:36:51;;;;;;;;;;;15.50;63.50;;;;;;5021341;28;19944;-35
2023/11/28 06:39:18;;;;;;;;;;;15.40;63.50;;;;;;5043115;28;19999;-35
2023/11/28 06:41:47;;;;;;;;;;;15.40;63.60;;;;;;5103939;28;19908;-35
2023/11/28 06:44:14;;;;;;;;;;;15.30;63.50;;;;;;5102641;28;19955;-35
2023/11/28 06:46:40;;;;;;;;;;;15.40;63.60;;;;;;5103192;28;19916;-35
2023/11/28 06:49:06;;;;;;;;;;;15.50;63.60;;;;;;5103348;28;20298;-34
2023/11/28 06:51:32;;;;;;;;;;;15.50;63.60;;;;;;5102878;28;20392;-35
2023/11/28 06:53:58;;;;;;;;;;;15.50;63.50;;;;;;5099095;28;19991;-34
2023/11/28 06:56:24;;;;;;;;;;;15.40;63.40;;;;;;5101403;28;19953;-35
2023/11/28 06:58:51;;;;;;;;;;;15.40;63.50;;;;;;5106072;28;20390;-36
2023/11/28 07:01:18;;;;;;;;;;;15.40;63.60;;;;;;5105180;28;19912;-35
2023/11/28 07:03:44;;;;;;;;;;;15.30;63.60;;;;;;5103044;28;19908;-35
2023/11/28 07:06:10;;;;;;;;;;;15.30;63.60;;;;;;5102719;28;19911;-35
2023/11/28 07:08:36;;;;;;;;;;;15.50;63.60;;;;;;5102572;28;19908;-35
2023/11/28 07:11:02;;;;;;;;;;;15.50;63.40;;;;;;5103374;28;19908;-35
2023/11/28 07:13:28;;;;;;;;;;;15.50;63.40;;;;;;5102536;28;19908;-37
2023/11/28 07:15:54;;;;;;;;;;;15.40;63.30;;;;;;5095071;28;19923;-35
2023/11/28 07:18:20;;;;;;;;;;;15.40;63.40;;;;;;5102700;28;19912;-34
2023/11/28 07:20:49;;;;;;;;;;;15.30;63.40;;;;;;5102597;28;19908;-34
2023/11/28 07:23:16;;;;;;;;;;;15.30;63.40;;;;;;5101684;28;20345;-34
2023/11/28 07:25:43;;;;;;;;;;;15.30;63.40;;;;;;5102725;28;19918;-34
2023/11/28 07:28:09;;;;;;;;;;;15.50;63.30;;;;;;5104035;28;19931;-34
2023/11/28 07:30:35;;;;;;;;;;;15.50;63.30;;;;;;5108043;28;19908;-34
2023/11/28 07:33:01;;;;;;;;;;;15.50;63.20;;;;;;5102613;28;19951;-34
2023/11/28 07:35:27;;;;;;;;;;;15.40;63.20;;;;;;5102634;28;19912;-34
2023/11/28 07:37:53;;;;;;;;;;;15.40;63.20;;;;;;5103098;28;19959;-34
2023/11/28 07:40:18;;;;;;;;;;;15.30;63.20;;;;;;5102604;28;19965;-34
2023/11/28 07:42:44;;;;;;;;;;;15.30;63.30;;;;;;5102628;28;19908;-34
2023/11/28 07:45:10;;;;;;;;;;;15.30;63.30;;;;;;5102483;28;19924;-34
2023/11/28 07:47:37;;;;;;;;;;;15.40;63.20;;;;;;5102531;28;19912;-34
2023/11/28 07:50:03;;;;;;;;;;;15.50;63.00;;;;;;5106579;28;20007;-34
2023/11/28 07:52:29;;;;;;;;;;;15.50;63.00;;;;;;5106147;28;19918;-34
2023/11/28 07:54:55;;;;;;;;;;;15.40;62.90;;;;;;5106606;28;19936;-34
2023/11/28 07:57:21;;;;;;;;;;;15.40;63.00;;;;;;5105300;28;19926;-34
2023/11/28 07:59:47;;;;;;;;;;;15.30;62.80;;;;;;5111634;28;19941;-34
2023/11/28 08:02:13;;;;;;;;;;;15.30;63.00;;;;;;5106583;28;19908;-34
2023/11/28 08:04:39;;;;;;;;;;;15.30;62.80;;;;;;5106403;28;19912;-34
2023/11/28 08:07:05;;;;;;;;;;;15.50;62.90;;;;;;5105942;28;20304;-35
2023/11/28 08:09:50;;;;;;;;;;;15.50;62.90;;;;;;5105680;28;19956;-34
2023/11/28 08:12:16;;;;;;;;;;;15.50;62.80;;;;;;5105692;28;19908;-34
2023/11/28 08:14:42;;;;;;;;;;;15.40;62.80;;;;;;5098542;28;20690;-34
2023/11/28 08:17:07;;;;;;;;;;;15.40;62.90;;;;;;5098505;28;19939;-34
2023/11/28 08:19:33;;;;;;;;;;;15.30;62.90;;;;;;5107359;28;19911;-34
2023/11/28 08:21:59;;;;;;;;;;;15.30;62.90;;;;;;5106018;28;19944;-34
2023/11/28 08:24:25;;;;;;;;;;;15.30;62.70;;;;;;5104322;28;19908;-34
2023/11/28 08:26:51;;;;;;;;;;;15.50;62.90;;;;;;5080620;28;19939;-34
2023/11/28 08:29:17;;;;;;;;;;;15.50;62.80;;;;;;5111370;28;19915;-34
2023/11/28 08:31:43;;;;;;;;;;;15.50;62.60;;;;;;5098285;28;19908;-34
2023/11/28 08:34:09;;;;;;;;;;;15.40;62.60;;;;;;5106153;28;19912;-34
2023/11/28 08:36:35;;;;;;;;;;;15.30;62.60;;;;;;5106236;28;19923;-34
2023/11/28 08:39:01;;;;;;;;;;;15.30;62.80;;;;;;5105476;28;20300;-34
2023/11/28 08:41:26;;;;;;;;;;;15.30;62.80;;;;;;5105378;28;19939;-34
2023/11/28 08:43:52;;;;;;;;;;;15.30;62.70;;;;;;5105740;28;19916;-34
2023/11/28 08:46:18;;;;;;;;;;;15.50;62.70;;;;;;5099465;28;19919;-35
2023/11/28 08:48:44;;;;;;;;;;;15.50;62.70;;;;;;5098520;28;19919;-35
2023/11/28 08:51:10;;;;;;;;;;;15.40;62.50;;;;;;5099423;28;19916;-35
2023/11/28 08:53:36;;;;;;;;;;;15.40;62.60;;;;;;5098407;28;19919;-35
2023/11/28 08:56:02;;;;;;;;;;;15.30;62.60;;;;;;5106665;28;19979;-35
2023/11/28 08:58:28;;;;;;;;;;;15.30;62.70;;;;;;5104499;28;20003;-35
2023/11/28 09:00:54;;;;;;;;;;;15.30;62.80;;;;;;5110944;28;19908;-35
2023/11/28 09:03:23;;;;;;;;;;;15.40;62.80;;;;;;5106083;28;19912;-36
2023/11/28 09:05:49;;;;;;;;;;;15.50;62.80;;;;;;5105039;28;19934;-35
2023/11/28 09:08:15;;;;;;;;;;;15.50;62.70;;;;;;5105296;28;19941;-36
2023/11/28 09:10:41;;;;;;;;;;;15.40;62.60;;;;;;5104732;28;19908;-35
2023/11/28 09:13:07;;;;;;;;;;;15.40;62.60;;;;;;5105238;28;19938;-35
2023/11/28 09:15:33;;;;;;;;;;;15.30;62.60;;;;;;5103661;28;19908;-33
2023/11/28 09:17:59;;;;;;;;;;;15.30;62.70;;;;;;5096924;28;19938;-34
2023/11/28 09:20:25;;;;;;;;;;;15.30;62.70;;;;;;5103925;28;19912;-34
2023/11/28 09:22:51;;;;;;;;;;;15.40;62.60;;;;;;5103744;28;19943;-34
2023/11/28 09:25:17;;;;;;;;;;;15.50;62.70;;;;;;5104091;28;19909;-34
2023/11/28 09:27:43;;;;;;;;;;;15.50;62.50;;;;;;5104442;28;19966;-34
2023/11/28 09:30:09;;;;;;;;;;;15.40;62.60;;;;;;5098055;28;19912;-34
2023/11/28 09:32:35;;;;;;;;;;;15.40;62.60;;;;;;5110415;28;19915;-35
2023/11/28 09:35:01;;;;;;;;;;;15.30;62.60;;;;;;5108692;28;20014;-34
2023/11/28 09:37:27;;;;;;;;;;;15.30;62.70;;;;;;5103516;28;19965;-34
2023/11/28 09:39:53;;;;;;;;;;;15.40;62.60;;;;;;5103651;28;20372;-34
2023/11/28 09:42:19;;;;;;;;;;;15.50;62.60;;;;;;5103761;28;19908;-34
2023/11/28 09:44:45;;;;;;;;;;;15.50;62.70;;;;;;5103749;28;19926;-34
2023/11/28 09:47:11;;;;;;;;;;;15.50;62.50;;;;;;5080098;28;20645;-34
2023/11/28 09:49:45;;;;;;;;;;;15.40;62.50;;;;;;5103467;28;19919;-34
2023/11/28 09:52:13;;;;;;;;;;;15.40;62.60;;;;;;5104104;28;19908;-34
2023/11/28 09:54:39;;;;;;;;;;;15.30;62.60;;;;;;5103816;28;19911;-34
2023/11/28 09:57:05;;;;;;;;;;;15.30;62.60;;;;;;5104464;28;19916;-34
2023/11/28 09:59:31;;;;;;;;;;;15.40;62.50;;;;;;5107592;28;19919;-34
2023/11/28 10:01:57;;;;;;;;;;;15.50;62.40;;;;;;5103254;28;19912;-34
2023/11/28 10:04:24;;;;;;;;;;;15.50;62.50;;;;;;5103399;28;19955;-34
2023/11/28 10:06:51;;;;;;;;;;;15.50;62.40;;;;;;5103269;28;19919;-34
2023/11/28 10:09:17;;;;;;;;;;;15.40;62.40;;;;;;5102936;28;19912;-34
2023/11/28 10:11:43;;;;;;;;;;;15.30;62.50;;;;;;5096038;28;20280;-34
2023/11/28 10:14:09;;;;;;;;;;;15.30;62.60;;;;;;5103783;28;19976;-33
2023/11/28 10:16:42;;;;;;;;;;;15.30;62.50;;;;;;5103396;28;19938;-34
2023/11/28 10:19:08;;;;;;;;;;;15.40;62.50;;;;;;5103644;28;19946;-34
2023/11/28 10:21:35;;;;;;;;;;;15.50;62.50;;;;;;5103563;28;19934;-34
2023/11/28 10:24:00;;;;;;;;;;;15.50;62.50;;;;;;5102112;28;19923;-34
2023/11/28 10:26:27;;;;;;;;;;;15.50;62.40;;;;;;5093912;28;19912;-34
2023/11/28 10:28:53;;;;;;;;;;;15.40;62.40;;;;;;5099950;28;19960;-34
2023/11/28 10:31:19;;;;;;;;;;;15.40;62.50;;;;;;5091158;28;19909;-34
2023/11/28 10:33:45;;;;;;;;;;;15.30;62.50;;;;;;5096368;28;19912;-34
2023/11/28 10:36:14;;;;;;;;;;;15.30;62.50;;;;;;5099362;28;20063;-34
2023/11/28 10:38:40;;;;;;;;;;;15.40;62.50;;;;;;5100324;28;20003;-34
2023/11/28 10:41:06;;;;;;;;;;;15.50;62.50;;;;;;5099079;28;19908;-35
2023/11/28 10:43:31;;;;;;;;;;;15.50;62.60;;;;;;5102080;28;19920;-34
2023/11/28 10:45:57;;;;;;;;;;;15.50;62.50;;;;;;5095287;28;19942;-34
2023/11/28 10:48:23;;;;;;;;;;;15.40;62.40;;;;;;5102247;28;19908;-34
2023/11/28 10:50:49;;;;;;;;;;;15.40;62.60;;;;;;5103867;28;20021;-34
2023/11/28 10:53:16;;;;;;;;;;;15.30;63.40;;;;;;5102809;28;20084;-35
2023/11/28 10:55:43;;;;;;;;;;;15.30;62.60;;;;;;5097228;28;19965;-35
2023/11/28 10:58:15;;;;;;;;;;;15.40;62.60;;;;;;5102886;28;19919;-34
2023/11/28 11:00:42;;;;;;;;;;;15.50;62.50;;;;;;5108141;28;20003;-34
2023/11/28 11:03:08;;;;;;;;;;;15.50;62.50;;;;;;5102853;28;20369;-34
2023/11/28 11:05:34;;;;;;;;;;;15.50;62.40;;;;;;5117184;28;19912;-34
2023/11/28 11:08:00;;;;;;;;;;;15.40;62.50;;;;;;5102536;28;19922;-33
2023/11/28 11:10:26;;;;;;;;;;;15.40;62.60;;;;;;5102266;28;19915;-34
2023/11/28 11:12:57;;;;;;;;;;;15.30;62.60;;;;;;5102492;28;19912;-34
2023/11/28 11:15:25;;;;;;;;;;;15.30;62.60;;;;;;5085016;28;19936;-34
2023/11/28 11:17:57;;;;;;;;;;;15.50;62.60;;;;;;5085798;28;19920;-34
2023/11/28 11:20:23;;;;;;;;;;;15.50;62.60;;;;;;5102391;28;19914;-35
2023/11/28 11:22:51;;;;;;;;;;;15.50;62.50;;;;;;5103133;28;19974;-34
2023/11/28 11:25:22;;;;;;;;;;;15.50;62.50;;;;;;5106000;28;19912;-33
2023/11/28 11:27:48;;;;;;;;;;;15.40;62.50;;;;;;5115726;28;20719;-34
2023/11/28 11:30:14;;;;;;;;;;;15.40;62.60;;;;;;5107031;28;19938;-34
2023/11/28 11:32:41;;;;;;;;;;;15.30;62.60;;;;;;5106796;28;19911;-35
2023/11/28 11:35:08;;;;;;;;;;;15.40;62.50;;;;;;5106056;28;19911;-35
2023/11/28 11:37:36;;;;;;;;;;;15.50;62.50;;;;;;5095698;28;19973;-34
2023/11/28 11:40:02;;;;;;;;;;;15.50;62.60;;;;;;5105239;28;19912;-34
2023/11/28 11:42:35;;;;;;;;;;;15.50;62.50;;;;;;5105869;28;20307;-34
2023/11/28 11:45:03;;;;;;;;;;;15.40;62.40;;;;;;5088734;28;19915;-34
2023/11/28 11:47:29;;;;;;;;;;;15.40;62.50;;;;;;5106294;28;19947;-35
2023/11/28 11:49:55;;;;;;;;;;;15.30;62.60;;;;;;5087688;28;19912;-34
2023/11/28 11:52:24;;;;;;;;;;;15.40;62.60;;;;;;5105926;28;19912;-35
2023/11/28 11:54:52;;;;;;;;;;;15.50;62.70;;;;;;5105872;28;20015;-34
2023/11/28 11:57:19;;;;;;;;;;;15.50;62.70;;;;;;5073214;28;19920;-34
2023/11/28 11:59:45;;;;;;;;;;;15.50;62.60;;;;;;5112408;28;20006;-34
2023/11/28 12:02:11;;;;;;;;;;;15.50;62.60;;;;;;5105974;28;19908;-34
2023/11/28 12:04:40;;;;;;;;;;;15.40;62.60;;;;;;5104960;28;19953;-34
2023/11/28 12:07:07;;;;;;;;;;;15.40;62.70;;;;;;5105891;28;20478;-34
2023/11/28 12:09:33;;;;;;;;;;;15.30;62.60;;;;;;5105434;28;19974;-34
2023/11/28 12:11:59;;;;;;;;;;;15.40;62.60;;;;;;5105903;28;19908;-34
2023/11/28 12:14:25;;;;;;;;;;;15.50;62.60;;;;;;5105161;28;19916;-34
2023/11/28 12:16:51;;;;;;;;;;;15.50;62.60;;;;;;5106000;28;19942;-34
2023/11/28 12:19:17;;;;;;;;;;;15.50;62.60;;;;;;5106358;28;19916;-34
2023/11/28 12:22:09;;;;;;;;;;;15.40;62.60;;;;;;5059376;28;20447;-34
2023/11/28 12:24:34;;;;;;;;;;;15.40;62.60;;;;;;5062858;28;19913;-34
2023/11/28 12:27:01;;;;;;;;;;;15.30;62.70;;;;;;5063479;28;19917;-35
2023/11/28 12:29:26;;;;;;;;;;;15.40;62.60;;;;;;5068935;28;19912;-34
2023/11/28 12:31:55;;;;;;;;;;;15.50;62.70;;;;;;5063388;28;19996;-34
2023/11/28 12:34:22;;;;;;;;;;;15.50;62.60;;;;;;5062650;28;19908;-35
2023/11/28 12:36:48;;;;;;;;;;;15.50;62.60;;;;;;5063162;28;19916;-35
2023/11/28 12:39:14;;;;;;;;;;;15.40;62.60;;;;;;5046309;28;19905;-34
2023/11/28 12:41:41;;;;;;;;;;;15.40;62.60;;;;;;5063359;28;20395;-42
2023/11/28 12:44:10;;;;;;;;;;;15.30;62.70;;;;;;5062720;28;19988;-34
2023/11/28 12:46:37;;;;;;;;;;;15.30;62.70;;;;;;5062674;28;19948;-34
2023/11/28 12:49:04;;;;;;;;;;;15.40;62.70;;;;;;5063365;28;19913;-34
2023/11/28 12:51:30;;;;;;;;;;;15.50;62.60;;;;;;5062896;28;19923;-35
2023/11/28 12:54:02;;;;;;;;;;;15.50;62.70;;;;;;5063033;28;19912;-34
2023/11/28 12:56:33;;;;;;;;;;;15.50;62.60;;;;;;5062704;28;19912;-34
2023/11/28 12:59:00;;;;;;;;;;;15.40;62.60;;;;;;5083392;28;19963;-34
2023/11/28 13:01:27;;;;;;;;;;;15.40;62.60;;;;;;5106633;28;19981;-34
2023/11/28 13:03:53;;;;;;;;;;;15.30;62.60;;;;;;5105672;28;19930;-34
2023/11/28 13:06:19;;;;;;;;;;;15.30;62.70;;;;;;5104837;28;19919;-36
2023/11/28 13:08:45;;;;;;;;;;;15.40;62.80;;;;;;5087404;28;19912;-34
2023/11/28 13:11:11;;;;;;;;;;;15.50;62.70;;;;;;5105364;28;19908;-34
2023/11/28 13:13:37;;;;;;;;;;;15.50;62.70;;;;;;5105040;28;19912;-34
2023/11/28 13:16:03;;;;;;;;;;;15.40;62.60;;;;;;5105006;28;19911;-35
2023/11/28 13:18:30;;;;;;;;;;;15.40;62.60;;;;;;5104310;28;19908;-34
2023/11/28 13:20:56;;;;;;;;;;;15.30;62.60;;;;;;5105034;28;20003;-34
2023/11/28 13:23:22;;;;;;;;;;;15.30;62.80;;;;;;5103588;28;20295;-34
2023/11/28 13:25:48;;;;;;;;;;;15.40;62.70;;;;;;5103992;28;19959;-34
2023/11/28 13:28:14;;;;;;;;;;;15.50;62.80;;;;;;5104389;28;19908;-34
2023/11/28 13:30:39;;;;;;;;;;;15.50;62.70;;;;;;5109798;28;19919;-34
2023/11/28 13:33:07;;;;;;;;;;;15.50;62.60;;;;;;5099400;28;19963;-34
2023/11/28 13:35:33;;;;;;;;;;;15.40;62.50;;;;;;5101740;28;19919;-34
2023/11/28 13:38:00;;;;;;;;;;;15.40;62.60;;;;;;5104215;28;19955;-34
2023/11/28 13:40:27;;;;;;;;;;;15.30;62.60;;;;;;5103329;28;19911;-34
2023/11/28 13:42:53;;;;;;;;;;;15.30;62.60;;;;;;5104036;28;19908;-34
2023/11/28 13:45:19;;;;;;;;;;;15.40;62.60;;;;;;5102795;28;19919;-34
2023/11/28 13:47:45;;;;;;;;;;;15.50;62.50;;;;;;5103986;28;19908;-34
2023/11/28 13:50:11;;;;;;;;;;;15.50;62.60;;;;;;5104275;28;19916;-34
2023/11/28 13:52:37;;;;;;;;;;;15.50;62.60;;;;;;5104090;28;19934;-34
2023/11/28 13:55:03;;;;;;;;;;;15.40;62.50;;;;;;5098721;28;20687;-35
2023/11/28 13:57:29;;;;;;;;;;;15.30;62.60;;;;;;5103941;28;19924;-34
2023/11/28 13:59:55;;;;;;;;;;;15.30;62.70;;;;;;5109868;28;19912;-34
2023/11/28 14:02:20;;;;;;;;;;;15.30;62.50;;;;;;5104119;28;19919;-34
2023/11/28 14:04:46;;;;;;;;;;;15.40;62.50;;;;;;5103932;28;19919;-34
2023/11/28 14:07:12;;;;;;;;;;;15.50;62.30;;;;;;5103323;28;19911;-34
2023/11/28 14:09:38;;;;;;;;;;;15.50;62.40;;;;;;5103641;28;19912;-34
2023/11/28 14:12:04;;;;;;;;;;;15.50;62.30;;;;;;5104175;28;20014;-34